createdAt,value
2022-12-23T00:01:01.573Z,12.50
2022-12-23T00:03:41.834Z,12.60
2022-12-23T00:06:14.504Z,10.40
2022-12-23T00:08:42.349Z,10.00
2022-12-23T00:11:15.336Z,9.97
2022-12-23T00:14:00.998Z,9.93
2022-12-23T00:16:27.892Z,11.00
2022-12-23T00:18:54.862Z,10.57
2022-12-23T00:21:22.228Z,11.53
2022-12-23T00:23:51.313Z,12.43
2022-12-23T00:26:23.709Z,13.30
2022-12-23T00:28:50.972Z,13.80
2022-12-23T00:31:19.020Z,15.10
2022-12-23T00:33:48.203Z,15.47
2022-12-23T00:36:19.160Z,13.90
2022-12-23T00:39:04.504Z,12.53
2022-12-23T00:41:50.030Z,12.70
2022-12-23T00:44:16.696Z,11.23
2022-12-23T00:46:43.435Z,11.77
2022-12-23T00:49:34.361Z,13.43
2022-12-23T00:52:01.650Z,17.93
2022-12-23T00:54:29.245Z,10.63
2022-12-23T00:56:55.844Z,9.57
2022-12-23T00:59:22.567Z,10.80
2022-12-23T01:02:07.924Z,9.93
2022-12-23T01:04:53.491Z,11.10
2022-12-23T01:07:31.129Z,17.47
2022-12-23T01:09:57.763Z,11.73
2022-12-23T01:12:24.361Z,12.40
2022-12-23T01:14:51.003Z,12.73
2022-12-23T01:17:18.515Z,13.60
2022-12-23T01:19:45.289Z,11.37
2022-12-23T01:22:11.911Z,19.47
2022-12-23T01:24:38.589Z,11.07
2022-12-23T01:27:05.160Z,12.73
2022-12-23T01:29:31.810Z,10.30
2022-12-23T01:31:58.523Z,10.20
2022-12-23T01:34:28.480Z,14.27
2022-12-23T01:36:57.717Z,10.67
2022-12-23T01:39:24.308Z,13.77
2022-12-23T01:42:09.458Z,15.30
2022-12-23T01:45:00.583Z,12.40
2022-12-23T01:47:33.393Z,12.00
2022-12-23T01:50:09.656Z,14.07
2022-12-23T01:52:50.051Z,18.30
2022-12-23T01:55:20.908Z,23.67
2022-12-23T01:57:48.212Z,14.90
2022-12-23T02:00:33.804Z,25.63
2022-12-23T02:03:19.053Z,27.07
2022-12-23T02:05:46.806Z,23.97
2022-12-23T02:08:34.441Z,28.10
2022-12-23T02:11:15.899Z,19.63
2022-12-23T02:14:20.070Z,23.33
2022-12-23T02:16:54.949Z,16.70
2022-12-23T02:19:51.519Z,20.40
2022-12-23T02:22:41.853Z,17.33
2022-12-23T02:25:28.509Z,15.03
2022-12-23T02:28:16.989Z,19.30
2022-12-23T02:30:52.916Z,17.20
2022-12-23T02:33:36.845Z,15.60
2022-12-23T02:36:10.971Z,15.70
2022-12-23T02:39:05.250Z,15.80
2022-12-23T02:42:27.279Z,13.50
2022-12-23T02:45:00.058Z,14.33
2022-12-23T02:47:37.957Z,11.53
2022-12-23T02:50:14.427Z,12.43
2022-12-23T02:52:43.881Z,12.37
2022-12-23T02:55:16.676Z,13.00
2022-12-23T02:57:47.656Z,14.03
2022-12-23T03:00:15.225Z,15.20
2022-12-23T03:02:43.499Z,11.57
2022-12-23T03:05:29.664Z,11.43
2022-12-23T03:08:00.532Z,13.60
2022-12-23T03:10:55.930Z,12.17
2022-12-23T03:13:28.633Z,13.73
2022-12-23T03:16:05.489Z,12.10
2022-12-23T03:18:59.190Z,15.07
2022-12-23T03:21:52.993Z,12.10
2022-12-23T03:24:49.380Z,13.53
2022-12-23T03:27:30.479Z,12.40
2022-12-23T03:30:11.547Z,13.83
2022-12-23T03:32:51.091Z,19.33
2022-12-23T03:35:23.527Z,14.50
2022-12-23T03:37:54.783Z,13.00
2022-12-23T03:40:35.127Z,11.30
2022-12-23T03:43:07.161Z,11.13
2022-12-23T03:45:41.041Z,10.70
2022-12-23T03:48:17.288Z,11.20
2022-12-23T03:50:45.278Z,11.33
2022-12-23T03:53:21.140Z,11.33
2022-12-23T03:55:53.997Z,11.87
2022-12-23T03:58:23.513Z,10.33
2022-12-23T04:01:19.279Z,14.10
2022-12-23T04:03:55.997Z,9.83
2022-12-23T04:06:26.266Z,10.60
2022-12-23T04:08:53.678Z,10.80
2022-12-23T04:11:20.844Z,9.80
2022-12-23T04:13:48.386Z,10.40
2022-12-23T04:16:15.480Z,10.57
2022-12-23T04:18:42.127Z,16.40
2022-12-23T04:21:08.716Z,9.77
2022-12-23T04:23:35.311Z,12.10
2022-12-23T04:26:01.894Z,11.63
2022-12-23T04:28:28.474Z,16.90
2022-12-23T04:30:55.098Z,12.67
2022-12-23T04:33:22.890Z,15.80
2022-12-23T04:35:49.565Z,11.57
2022-12-23T04:38:16.228Z,11.73
2022-12-23T04:40:46.888Z,11.60
2022-12-23T04:43:13.582Z,9.93
2022-12-23T04:45:40.173Z,10.37
2022-12-23T04:48:09.408Z,12.40
2022-12-23T04:50:36.153Z,11.03
2022-12-23T04:53:02.736Z,13.63
2022-12-23T04:55:29.361Z,11.30
2022-12-23T04:57:55.942Z,10.40
2022-12-23T05:00:22.731Z,9.87
2022-12-23T05:02:49.405Z,10.87
2022-12-23T05:05:16.222Z,10.57
2022-12-23T05:07:42.864Z,10.10
2022-12-23T05:10:10.190Z,9.60
2022-12-23T05:12:36.759Z,11.53
2022-12-23T05:15:03.449Z,10.07
2022-12-23T05:17:30.071Z,11.53
2022-12-23T05:19:56.712Z,11.20
2022-12-23T05:22:26.473Z,10.77
2022-12-23T05:24:53.046Z,10.33
2022-12-23T05:27:19.736Z,10.17
2022-12-23T05:29:46.339Z,9.80
2022-12-23T05:32:12.981Z,11.47
2022-12-23T05:34:39.557Z,12.07
2022-12-23T05:37:15.320Z,10.80
2022-12-23T05:39:41.908Z,10.20
2022-12-23T05:42:08.775Z,9.80
2022-12-23T05:44:35.449Z,12.47
2022-12-23T05:47:02.159Z,13.57
2022-12-23T05:49:28.733Z,10.80
2022-12-23T05:51:55.323Z,11.30
2022-12-23T05:54:21.945Z,9.50
2022-12-23T05:56:48.580Z,10.60
2022-12-23T05:59:15.171Z,11.00
2022-12-23T06:01:41.880Z,10.10
2022-12-23T06:04:08.684Z,11.17
2022-12-23T06:06:35.425Z,9.67
2022-12-23T06:09:02.033Z,10.90
2022-12-23T06:11:28.807Z,9.23
2022-12-23T06:13:55.489Z,10.10
2022-12-23T06:16:22.247Z,10.40
2022-12-23T06:18:48.889Z,15.90
2022-12-23T06:21:15.581Z,12.20
2022-12-23T06:23:42.190Z,10.10
2022-12-23T06:26:08.779Z,10.93
2022-12-23T06:28:35.392Z,13.47
2022-12-23T06:31:04.098Z,10.67
2022-12-23T06:33:30.790Z,11.20
2022-12-23T06:35:57.365Z,13.20
2022-12-23T06:38:25.996Z,10.10
2022-12-23T06:40:52.582Z,13.30
2022-12-23T06:43:19.327Z,13.17
2022-12-23T06:45:49.667Z,10.33
2022-12-23T06:48:16.679Z,11.47
2022-12-23T06:50:43.506Z,10.30
2022-12-23T06:53:11.293Z,10.50
2022-12-23T06:55:38.098Z,15.60
2022-12-23T06:58:05.311Z,30.30
2022-12-23T07:00:43.164Z,21.50
2022-12-23T07:03:09.863Z,16.67
2022-12-23T07:05:37.731Z,23.07
2022-12-23T07:08:08.592Z,22.03
2022-12-23T07:10:39.364Z,20.40
2022-12-23T07:13:05.959Z,23.47
2022-12-23T07:15:32.856Z,15.17
2022-12-23T07:17:59.502Z,15.80
2022-12-23T07:20:26.162Z,12.23
2022-12-23T07:22:54.784Z,15.47
2022-12-23T07:25:21.606Z,12.37
2022-12-23T07:27:55.691Z,13.40
2022-12-23T07:30:23.388Z,10.60
2022-12-23T07:32:53.382Z,11.40
2022-12-23T07:35:20.128Z,9.57
2022-12-23T07:37:52.227Z,16.70
2022-12-23T07:40:19.037Z,12.90
2022-12-23T07:42:49.705Z,10.57
2022-12-23T07:45:16.836Z,12.80
2022-12-23T07:47:43.459Z,12.00
2022-12-23T07:50:10.377Z,11.83
2022-12-23T07:52:37.202Z,12.23
2022-12-23T07:55:04.293Z,12.63
2022-12-23T07:57:37.592Z,11.67
2022-12-23T08:00:10.077Z,13.07
2022-12-23T08:02:37.114Z,15.57
2022-12-23T08:05:04.388Z,12.47
2022-12-23T08:07:31.120Z,12.13
2022-12-23T08:09:57.724Z,11.37
2022-12-23T08:12:25.170Z,14.60
2022-12-23T08:14:52.865Z,11.10
2022-12-23T08:17:25.896Z,10.93
2022-12-23T08:19:52.495Z,10.93
2022-12-23T08:22:19.108Z,11.63
2022-12-23T08:24:45.880Z,11.77
2022-12-23T08:27:12.691Z,15.37
2022-12-23T08:29:40.263Z,14.37
2022-12-23T08:32:07.353Z,12.97
2022-12-23T08:34:34.200Z,13.93
2022-12-23T08:37:00.913Z,15.80
2022-12-23T08:39:27.598Z,18.17
2022-12-23T08:41:54.287Z,13.20
2022-12-23T08:44:21.613Z,12.30
2022-12-23T08:46:52.570Z,11.80
2022-12-23T08:49:19.158Z,11.37
2022-12-23T08:51:47.889Z,13.97
2022-12-23T08:54:15.395Z,12.20
2022-12-23T08:56:42.487Z,13.37
2022-12-23T08:59:18.630Z,11.87
2022-12-23T09:01:46.097Z,11.60
2022-12-23T09:04:14.027Z,15.97
2022-12-23T09:06:42.768Z,11.03
2022-12-23T09:09:12.425Z,12.83
2022-12-23T09:11:39.126Z,13.67
2022-12-23T09:14:07.167Z,12.30
2022-12-23T09:16:34.137Z,11.27
2022-12-23T09:19:07.933Z,14.13
2022-12-23T09:21:34.954Z,10.83
2022-12-23T09:24:01.914Z,11.10
2022-12-23T09:26:30.631Z,10.80
2022-12-23T09:28:57.861Z,12.07
2022-12-23T09:31:29.301Z,13.43
2022-12-23T09:33:59.150Z,14.60
2022-12-23T09:36:25.883Z,11.50
2022-12-23T09:38:57.244Z,11.87
2022-12-23T09:41:48.515Z,12.20
2022-12-23T09:44:49.016Z,12.57
2022-12-23T09:47:21.858Z,11.73
2022-12-23T09:49:55.379Z,13.00
2022-12-23T09:52:59.597Z,12.77
2022-12-23T09:55:49.256Z,12.10
2022-12-23T09:58:38.820Z,12.67
2022-12-23T10:01:27.623Z,10.63
2022-12-23T10:04:28.144Z,10.17
2022-12-23T10:07:03.779Z,10.50
2022-12-23T10:09:38.938Z,11.80
2022-12-23T10:12:40.069Z,11.20
2022-12-23T10:15:36.841Z,12.27
2022-12-23T10:18:23.844Z,11.57
2022-12-23T10:21:08.592Z,10.47
2022-12-23T10:23:38.529Z,10.03
2022-12-23T10:26:17.232Z,12.23
2022-12-23T10:28:43.841Z,14.03
2022-12-23T10:34:14.977Z,10.97
2022-12-23T10:37:07.184Z,13.27
2022-12-23T10:39:50.021Z,14.07
2022-12-23T10:42:40.280Z,12.13
2022-12-23T10:45:30.252Z,14.60
2022-12-23T10:48:25.647Z,12.90
2022-12-23T10:50:55.110Z,14.57
2022-12-23T10:53:50.106Z,12.70
2022-12-23T10:56:17.437Z,13.60
2022-12-23T10:58:49.463Z,15.30
2022-12-23T11:01:25.970Z,11.37
2022-12-23T11:04:08.819Z,12.47
2022-12-23T11:06:40.551Z,11.80
2022-12-23T11:09:23.468Z,10.27
2022-12-23T11:12:02.149Z,11.80
2022-12-23T11:14:41.434Z,11.80
2022-12-23T11:17:37.420Z,12.20
2022-12-23T11:20:22.623Z,19.00
2022-12-23T11:22:56.421Z,13.00
2022-12-23T11:25:32.385Z,10.47
2022-12-23T11:28:22.878Z,14.43
2022-12-23T11:30:58.832Z,15.67
2022-12-23T11:33:35.148Z,17.30
2022-12-23T11:36:14.252Z,12.50
2022-12-23T11:38:57.600Z,20.40
2022-12-23T11:41:27.518Z,14.23
2022-12-23T11:44:01.363Z,13.13
2022-12-23T11:46:31.695Z,14.60
2022-12-23T11:49:37.522Z,12.30
2022-12-23T11:52:17.010Z,11.97
2022-12-23T11:54:55.612Z,12.03
2022-12-23T11:57:39.843Z,11.10
2022-12-23T12:00:17.687Z,11.87
2022-12-23T12:02:47.179Z,12.60
2022-12-23T12:05:38.616Z,20.43
2022-12-23T12:08:19.013Z,20.17
2022-12-23T12:10:45.755Z,17.77
2022-12-23T12:13:50.605Z,14.60
2022-12-23T12:16:32.301Z,16.13
2022-12-23T12:19:06.324Z,12.70
2022-12-23T12:21:37.516Z,12.50
2022-12-23T12:24:27.100Z,11.50
2022-12-23T12:26:59.981Z,16.07
2022-12-23T12:29:53.878Z,12.47
2022-12-23T12:32:34.689Z,13.60
2022-12-23T12:35:07.178Z,12.30
2022-12-23T12:37:55.629Z,11.57
2022-12-23T12:40:41.845Z,16.57
2022-12-23T12:43:39.501Z,10.50
2022-12-23T12:46:24.941Z,36.30
2022-12-23T12:49:05.449Z,24.50
2022-12-23T12:52:16.503Z,13.50
2022-12-23T12:55:01.738Z,11.57
2022-12-23T12:57:29.462Z,10.70
2022-12-23T13:00:05.590Z,11.13
2022-12-23T13:02:52.218Z,12.60
2022-12-23T13:05:34.464Z,11.37
2022-12-23T13:08:38.251Z,15.53
2022-12-23T13:11:13.975Z,13.07
2022-12-23T13:14:13.224Z,11.63
2022-12-23T13:17:07.894Z,14.33
2022-12-23T13:19:56.131Z,13.93
2022-12-23T13:22:30.353Z,10.47
2022-12-23T13:25:09.069Z,13.63
2022-12-23T13:28:08.342Z,12.90
2022-12-23T13:30:54.539Z,11.40
2022-12-23T13:33:28.225Z,14.30
2022-12-23T13:36:34.277Z,14.33
2022-12-23T13:39:09.518Z,13.37
2022-12-23T13:41:42.537Z,10.40
2022-12-23T13:44:10.921Z,11.97
2022-12-23T13:46:50.496Z,14.80
2022-12-23T13:49:32.400Z,13.10
2022-12-23T13:52:24.657Z,12.63
2022-12-23T13:55:02.640Z,9.57
2022-12-23T13:57:47.282Z,10.37
2022-12-23T14:00:17.552Z,10.63
2022-12-23T14:02:57.816Z,12.63
2022-12-23T14:05:52.327Z,10.90
2022-12-23T14:08:19.088Z,10.80
2022-12-23T14:11:10.298Z,9.57
2022-12-23T14:13:55.159Z,9.83
2022-12-23T14:16:39.869Z,10.10
2022-12-23T14:19:21.465Z,10.93
2022-12-23T14:22:03.068Z,13.57
2022-12-23T14:25:02.657Z,15.30
2022-12-23T14:27:48.259Z,15.63
2022-12-23T14:30:40.128Z,15.50
2022-12-23T14:33:18.949Z,13.20
2022-12-23T14:35:45.558Z,13.93
2022-12-23T14:38:15.097Z,12.40
2022-12-23T14:40:41.677Z,13.37
2022-12-23T14:43:43.907Z,13.27
2022-12-23T14:46:51.495Z,11.70
2022-12-23T14:49:41.129Z,13.10
2022-12-23T14:52:47.801Z,13.40
2022-12-23T14:55:32.453Z,20.30
2022-12-23T14:58:26.755Z,14.60
2022-12-23T15:01:02.804Z,13.10
2022-12-23T15:03:42.081Z,12.83
2022-12-23T15:06:13.942Z,17.20
2022-12-23T15:08:42.583Z,17.40
2022-12-23T15:11:22.203Z,12.53
2022-12-23T15:13:51.096Z,14.70
2022-12-23T15:16:26.442Z,11.87
2022-12-23T15:18:55.315Z,14.30
2022-12-23T15:21:34.673Z,12.47
2022-12-23T15:24:01.311Z,18.87
2022-12-23T15:26:31.394Z,19.20
2022-12-23T15:29:00.528Z,13.80
2022-12-23T15:31:29.437Z,12.93
2022-12-23T15:34:03.761Z,12.90
2022-12-23T15:36:36.143Z,13.10
2022-12-23T15:39:09.737Z,11.90
2022-12-23T15:41:43.723Z,17.83
2022-12-23T15:44:15.318Z,15.80
2022-12-23T15:46:42.343Z,10.30
2022-12-23T15:49:11.568Z,11.10
2022-12-23T15:54:34.905Z,11.47
2022-12-23T15:57:03.390Z,11.33
2022-12-23T15:59:39.408Z,11.20
2022-12-23T16:05:31.122Z,56.17
2022-12-23T16:08:16.258Z,67.13
2022-12-23T16:10:55.689Z,26.17
2022-12-23T16:13:22.321Z,27.57
2022-12-23T16:15:49.132Z,25.80
2022-12-23T16:18:32.579Z,22.40
2022-12-23T16:21:02.577Z,18.80
2022-12-23T16:23:31.305Z,19.73
2022-12-23T16:26:00.205Z,16.33
2022-12-23T16:28:42.020Z,22.30
2022-12-23T16:31:10.392Z,20.70
2022-12-23T16:33:58.080Z,18.53
2022-12-23T16:36:27.897Z,19.80
2022-12-23T16:39:00.325Z,24.70
2022-12-23T16:41:46.006Z,28.63
2022-12-23T16:44:12.613Z,25.10
2022-12-23T16:46:43.487Z,26.23
2022-12-23T16:49:19.129Z,30.60
2022-12-23T16:51:45.908Z,26.43
2022-12-23T16:54:20.175Z,33.53
2022-12-23T16:56:51.975Z,26.63
2022-12-23T16:59:19.768Z,26.23
2022-12-23T17:01:48.130Z,24.13
2022-12-23T17:04:15.569Z,22.70
2022-12-23T17:06:42.580Z,22.97
2022-12-23T17:09:10.465Z,21.00
2022-12-23T17:11:43.142Z,18.00
2022-12-23T17:14:21.833Z,17.50
2022-12-23T17:16:49.425Z,17.03
2022-12-23T17:19:20.630Z,12.10
2022-12-23T17:21:57.739Z,13.50
2022-12-23T17:24:26.706Z,11.10
2022-12-23T17:26:54.099Z,19.23
2022-12-23T17:29:20.753Z,11.37
2022-12-23T17:31:48.599Z,12.50
2022-12-23T17:34:17.792Z,13.07
2022-12-23T17:36:49.586Z,12.23
2022-12-23T17:39:17.716Z,12.37
2022-12-23T17:41:44.609Z,13.50
2022-12-23T17:44:14.699Z,13.70
2022-12-23T17:46:42.026Z,14.63
2022-12-23T17:49:08.872Z,14.73
2022-12-23T17:51:39.309Z,15.83
2022-12-23T17:54:06.546Z,18.03
2022-12-23T17:56:33.342Z,19.70
2022-12-23T17:58:59.948Z,21.57
2022-12-23T18:01:30.944Z,25.00
2022-12-23T18:03:59.741Z,16.33
2022-12-23T18:06:28.885Z,16.67
2022-12-23T18:08:59.017Z,16.20
2022-12-23T18:11:44.351Z,20.83
2022-12-23T18:14:18.109Z,23.23
2022-12-23T18:16:44.857Z,19.93
2022-12-23T18:19:17.776Z,18.87
2022-12-23T18:21:44.463Z,22.43
2022-12-23T18:24:11.134Z,18.80
2022-12-23T18:26:37.997Z,15.23
2022-12-23T18:29:04.917Z,16.33
2022-12-23T18:31:32.328Z,21.93
2022-12-23T18:33:59.908Z,23.47
2022-12-23T18:36:32.099Z,17.07
2022-12-23T18:38:59.341Z,23.70
2022-12-23T18:41:26.953Z,15.80
2022-12-23T18:43:54.682Z,20.60
2022-12-23T18:46:21.604Z,19.53
2022-12-23T18:48:48.661Z,17.60
2022-12-23T18:51:17.484Z,14.87
2022-12-23T18:53:44.299Z,13.17
2022-12-23T18:56:21.129Z,18.73
2022-12-23T18:58:48.225Z,20.93
2022-12-23T19:01:17.019Z,14.60
2022-12-23T19:03:44.561Z,20.80
2022-12-23T19:06:13.686Z,18.07
2022-12-23T19:08:42.291Z,23.30
2022-12-23T19:11:12.368Z,15.03
2022-12-23T19:13:39.309Z,16.83
2022-12-23T19:16:06.094Z,19.97
2022-12-23T19:18:32.850Z,18.77
2022-12-23T19:21:03.922Z,17.93
2022-12-23T19:23:30.576Z,18.60
2022-12-23T19:25:57.569Z,15.43
2022-12-23T19:28:24.525Z,19.87
2022-12-23T19:30:51.678Z,16.40
2022-12-23T19:33:18.657Z,16.63
2022-12-23T19:35:45.339Z,20.60
2022-12-23T19:38:12.344Z,19.90
2022-12-23T19:40:39.581Z,20.13
2022-12-23T19:43:06.265Z,16.00
2022-12-23T19:45:32.927Z,16.27
2022-12-23T19:47:59.600Z,17.17
2022-12-23T19:50:27.123Z,19.03
2022-12-23T19:52:54.746Z,16.00
2022-12-23T19:55:21.592Z,24.20
2022-12-23T19:57:48.361Z,20.77
2022-12-23T20:00:15.866Z,19.83
2022-12-23T20:02:42.591Z,22.97
2022-12-23T20:05:10.103Z,15.87
2022-12-23T20:07:37.164Z,15.33
2022-12-23T20:10:05.549Z,16.70
2022-12-23T20:12:32.684Z,19.53
2022-12-23T20:14:59.304Z,18.93
2022-12-23T20:17:25.930Z,15.87
2022-12-23T20:19:52.575Z,15.07
2022-12-23T20:22:19.243Z,19.00
2022-12-23T20:24:46.096Z,21.53
2022-12-23T20:27:15.762Z,19.77
2022-12-23T20:29:43.983Z,18.03
2022-12-23T20:32:10.778Z,22.00
2022-12-23T20:34:40.096Z,14.50
2022-12-23T20:37:07.370Z,20.90
2022-12-23T20:39:34.385Z,13.77
2022-12-23T20:42:01.127Z,28.07
2022-12-23T20:44:34.884Z,21.60
2022-12-23T20:47:02.854Z,23.67
2022-12-23T20:49:29.630Z,23.70
2022-12-23T20:51:56.227Z,17.87
2022-12-23T20:54:29.743Z,20.33
2022-12-23T20:56:59.184Z,17.40
2022-12-23T20:59:25.881Z,19.20
2022-12-23T21:01:52.544Z,17.07
2022-12-23T21:04:19.371Z,22.30
2022-12-23T21:06:46.012Z,21.40
2022-12-23T21:09:14.485Z,26.00
2022-12-23T21:11:43.880Z,18.37
2022-12-23T21:14:19.928Z,19.13
2022-12-23T21:16:46.621Z,18.03
2022-12-23T21:19:16.821Z,18.70
2022-12-23T21:21:46.436Z,24.03
2022-12-23T21:24:13.219Z,20.30
2022-12-23T21:26:39.872Z,15.57
2022-12-23T21:29:09.325Z,23.03
2022-12-23T21:31:39.058Z,29.47
2022-12-23T21:34:06.477Z,20.10
2022-12-23T21:36:37.766Z,18.83
2022-12-23T21:39:05.992Z,19.27
2022-12-23T21:41:39.044Z,18.47
2022-12-23T21:44:05.975Z,18.53
2022-12-23T21:46:32.798Z,20.00
2022-12-23T21:49:01.712Z,17.90
2022-12-23T21:51:39.104Z,27.80
2022-12-23T21:54:06.586Z,21.47
2022-12-23T21:56:35.614Z,24.00
2022-12-23T21:59:04.960Z,17.03
2022-12-23T22:01:32.245Z,20.73
2022-12-23T22:04:00.444Z,23.00
2022-12-23T22:06:29.797Z,17.13
2022-12-23T22:08:57.207Z,15.07
2022-12-23T22:11:26.858Z,25.00
2022-12-23T22:13:55.987Z,22.50
2022-12-23T22:16:24.710Z,26.03
2022-12-23T22:18:53.042Z,17.80
2022-12-23T22:21:21.881Z,20.40
2022-12-23T22:23:49.940Z,14.27
2022-12-23T22:26:25.254Z,23.73
2022-12-23T22:28:53.757Z,16.73
2022-12-23T22:31:39.858Z,14.67
2022-12-23T22:34:10.829Z,13.10
2022-12-23T22:36:37.568Z,22.93
2022-12-23T22:39:05.330Z,21.93
2022-12-23T22:41:33.497Z,14.90
2022-12-23T22:44:00.269Z,17.37
2022-12-23T22:46:27.497Z,20.80
2022-12-23T22:48:54.857Z,23.23
2022-12-23T22:51:24.456Z,17.70
2022-12-23T22:53:51.271Z,15.60
2022-12-23T22:56:20.627Z,17.23
2022-12-23T22:58:48.383Z,23.70
2022-12-23T23:01:23.909Z,13.10
2022-12-23T23:03:56.940Z,21.80
2022-12-23T23:06:26.086Z,20.50
2022-12-23T23:08:54.000Z,16.20
2022-12-23T23:11:21.485Z,18.83
2022-12-23T23:13:48.698Z,15.67
2022-12-23T23:16:15.491Z,15.20
2022-12-23T23:18:42.156Z,16.13
2022-12-23T23:21:11.277Z,19.70
2022-12-23T23:23:38.150Z,14.67
2022-12-23T23:26:05.217Z,14.43
2022-12-23T23:28:31.828Z,17.87
2022-12-23T23:31:23.889Z,17.10
2022-12-23T23:33:45.183Z,23.23
2022-12-23T23:36:11.945Z,12.33
2022-12-23T23:38:38.573Z,19.17
2022-12-23T23:41:06.007Z,18.20
2022-12-23T23:43:32.600Z,19.00
2022-12-23T23:45:59.368Z,22.13
2022-12-23T23:48:26.035Z,22.60
2022-12-23T23:50:52.649Z,21.07
2022-12-23T23:53:19.265Z,17.37
2022-12-23T23:55:45.876Z,17.40
2022-12-23T23:58:12.891Z,19.63
